.
WxDataArchive / Data Records for 2013-03-22
2013-03-21 March 2013 2013-03-23

Data Records for Friday, 22 March 2013

Time	Temp	Chill	HIndex	Humid	Dewpt	 Wind 	HiWind	WindDir	Rain 	Barom 
-----	----	-----	------	-----	-----	------	------	-------	-----	----- 
00:00	23.5	23.5	23.5	68	14.5	0	1	270	0.00	30.034 
00:05	23.3	23.3	23.3	68	14.3	0	1	270	0.00	30.034 
00:10	23.3	23.3	23.3	68	14.3	0	0	---	0.00	30.034 
00:15	23.3	23.3	23.3	68	14.3	0	1	270	0.00	30.033 
00:20	23.2	23.2	23.2	68	14.2	0	1	270	0.00	30.033 
00:25	23.2	23.2	23.2	68	14.2	0	0	---	0.00	30.033 
00:30	23.0	23.0	23.0	68	14.0	0	1	270	0.00	30.031 
00:35	22.9	22.9	22.9	69	14.3	0	1	270	0.00	30.031 
00:40	22.9	22.9	22.9	69	14.3	0	1	270	0.00	30.031 
00:45	22.7	22.7	22.7	69	14.1	0	1	270	0.00	30.027 
00:50	22.7	22.7	22.7	70	14.4	0	1	270	0.00	30.027 
00:55	22.7	22.7	22.7	70	14.4	0	1	270	0.00	30.027 
01:00	22.5	22.5	22.5	70	14.2	0	1	270	0.00	30.030 
01:05	22.4	22.4	22.4	70	14.1	0	1	270	0.00	30.030 
01:10	22.4	22.4	22.4	71	14.4	0	1	270	0.00	30.030 
01:15	22.2	22.2	22.2	71	14.3	0	1	270	0.00	30.031 
01:20	22.2	22.2	22.2	71	14.3	0	1	270	0.00	30.031 
01:25	22.2	22.2	22.2	71	14.3	0	1	270	0.00	30.031 
01:30	22.2	22.2	22.2	71	14.3	0	1	270	0.00	30.033 
01:35	22.2	22.2	22.2	72	14.6	0	1	270	0.00	30.033 
01:40	22.1	22.1	22.1	72	14.5	0	0	---	0.00	30.033 
01:45	22.1	22.1	22.1	72	14.5	0	0	---	0.00	30.032 
01:50	22.1	22.1	22.1	72	14.5	0	1	270	0.00	30.032 
01:55	22.1	22.1	22.1	72	14.5	0	1	270	0.00	30.032 
02:00	21.9	21.9	21.9	72	14.3	0	1	270	0.00	30.032 
02:05	21.9	21.9	21.9	73	14.6	0	0	---	0.00	30.032 
02:10	21.9	21.9	21.9	73	14.6	0	0	---	0.00	30.032 
02:15	21.9	21.9	21.9	73	14.6	0	0	---	0.00	30.031 
02:20	21.8	21.8	21.8	73	14.5	0	0	---	0.00	30.031 
02:25	21.8	21.8	21.8	73	14.5	0	0	---	0.00	30.031 
02:30	21.8	21.8	21.8	73	14.5	0	1	270	0.00	30.027 
02:35	21.6	21.6	21.6	73	14.3	0	1	270	0.00	30.027 
02:40	21.6	21.6	21.6	73	14.3	0	1	270	0.00	30.027 
02:45	21.6	21.6	21.6	73	14.3	0	1	270	0.00	30.032 
02:50	21.6	21.6	21.6	73	14.3	0	1	270	0.00	30.032 
02:55	21.4	21.4	21.4	73	14.1	0	0	---	0.00	30.032 
03:00	21.3	21.3	21.3	73	14.0	0	0	---	0.00	30.032 
03:05	21.0	21.0	21.0	73	13.7	0	0	---	0.00	30.032 
03:10	20.8	20.8	20.8	73	13.5	0	0	---	0.00	30.032 
03:15	20.5	20.5	20.5	73	13.2	0	0	---	0.00	30.032 
03:20	20.5	20.5	20.5	74	13.6	0	0	---	0.00	30.032 
03:25	20.2	20.2	20.2	74	13.3	0	0	---	0.00	30.032 
03:30	20.0	20.0	20.0	74	13.1	0	0	---	0.00	30.034 
03:35	19.9	19.9	19.9	74	13.0	0	0	---	0.00	30.034 
03:40	19.7	19.7	19.7	75	13.1	0	0	---	0.00	30.034 
03:45	19.5	19.5	19.5	75	12.9	0	0	---	0.00	30.034 
03:50	19.4	19.4	19.4	76	13.1	0	0	---	0.00	30.034 
03:55	19.4	19.4	19.4	77	13.4	0	0	---	0.00	30.034 
04:00	19.5	19.5	19.5	77	13.5	0	1	270	0.00	30.034 
04:05	19.7	19.7	19.7	77	13.7	0	0	---	0.00	30.034 
04:10	19.7	19.7	19.7	77	13.7	0	0	---	0.00	30.034 
04:15	19.7	19.7	19.7	77	13.7	0	0	---	0.00	30.034 
04:20	19.7	19.7	19.7	77	13.7	0	1	270	0.00	30.034 
04:25	19.7	19.7	19.7	78	14.0	0	1	270	0.00	30.034 
04:30	19.7	19.7	19.7	78	14.0	0	0	---	0.00	30.034 
04:35	19.7	19.7	19.7	78	14.0	0	0	---	0.00	30.034 
04:40	19.9	19.9	19.9	78	14.2	0	0	---	0.00	30.034 
04:45	19.7	19.7	19.7	78	14.0	0	0	---	0.00	30.033 
04:50	19.7	19.7	19.7	78	14.0	0	0	---	0.00	30.033 
04:55	19.7	19.7	19.7	78	14.0	0	0	---	0.00	30.033 
05:00	19.5	19.5	19.5	78	13.8	0	0	---	0.00	30.033 
05:05	19.5	19.5	19.5	78	13.8	0	0	---	0.00	30.033 
05:10	19.4	19.4	19.4	78	13.7	0	0	---	0.00	30.033 
05:15	19.2	19.2	19.2	78	13.5	0	0	---	0.00	30.036 
05:20	19.2	19.2	19.2	78	13.5	0	0	---	0.00	30.036 
05:25	19.2	19.2	19.2	79	13.8	0	0	---	0.00	30.036 
05:30	19.2	19.2	19.2	79	13.8	0	0	---	0.00	30.038 
05:35	19.2	19.2	19.2	79	13.8	0	1	270	0.00	30.038 
05:40	19.2	19.2	19.2	79	13.8	0	0	---	0.00	30.038 
05:45	19.2	19.2	19.2	80	14.1	0	1	270	0.00	30.040 
05:50	19.2	19.2	19.2	80	14.1	0	0	---	0.00	30.040 
05:55	19.2	19.2	19.2	80	14.1	0	1	270	0.00	30.040 
06:00	19.1	19.1	19.1	80	14.0	0	0	---	0.00	30.040 
06:05	19.1	19.1	19.1	80	14.0	0	0	---	0.00	30.040 
06:10	19.2	19.2	19.2	81	14.3	0	0	---	0.00	30.040 
06:15	19.4	19.4	19.4	81	14.5	0	0	---	0.00	30.041 
06:20	19.4	19.4	19.4	80	14.3	0	0	---	0.00	30.041 
06:25	19.4	19.4	19.4	80	14.3	0	0	---	0.00	30.041 
06:30	19.4	19.4	19.4	80	14.3	0	0	---	0.00	30.043 
06:35	19.4	19.4	19.4	80	14.3	0	0	---	0.00	30.043 
06:40	19.2	19.2	19.2	80	14.1	0	0	---	0.00	30.043 
06:45	19.1	19.1	19.1	80	14.0	0	0	---	0.00	30.051 
06:50	18.9	18.9	18.9	80	13.8	0	0	---	0.00	30.051 
06:55	18.8	18.8	18.8	80	13.7	0	0	---	0.00	30.051 
07:00	18.8	18.8	18.8	81	14.0	0	0	---	0.00	30.053 
07:05	18.6	18.6	18.6	81	13.8	0	0	---	0.00	30.053 
07:10	18.6	18.6	18.6	81	13.8	0	0	---	0.00	30.053 
07:15	18.4	18.4	18.4	81	13.6	0	0	---	0.00	30.057 
07:20	18.3	18.3	18.3	81	13.5	0	0	---	0.00	30.057 
07:25	18.1	18.1	18.1	81	13.3	0	0	---	0.00	30.057 
07:30	18.0	18.0	18.0	81	13.2	0	0	---	0.00	30.057 
07:35	18.0	18.0	18.0	81	13.2	0	0	---	0.00	30.057 
07:40	17.8	17.8	17.8	81	13.0	0	0	---	0.00	30.057 
07:45	17.8	17.8	17.8	82	13.3	0	0	---	0.00	30.058 
07:50	17.8	17.8	17.8	82	13.3	0	0	---	0.00	30.058 
07:55	17.8	17.8	17.8	82	13.3	0	0	---	0.00	30.058 
08:00	17.8	17.8	17.8	82	13.3	0	0	---	0.00	30.059 
08:05	17.8	17.8	17.8	82	13.3	0	0	---	0.00	30.059 
08:10	18.1	18.1	18.1	83	13.8	0	0	---	0.00	30.059 
08:15	18.4	18.4	18.4	83	14.1	0	0	---	0.00	30.064 
08:20	18.9	18.9	18.9	83	14.6	0	0	---	0.00	30.064 
08:25	19.4	19.4	19.4	84	15.4	0	0	---	0.00	30.064 
08:30	19.9	19.9	19.9	83	15.6	0	1	270	0.00	30.064 
08:35	20.5	20.5	20.5	83	16.2	0	1	270	0.00	30.064 
08:40	21.1	21.1	21.1	83	16.8	0	1	270	0.00	30.064 
08:45	21.8	21.8	21.8	82	17.2	0	1	270	0.00	30.064 
08:50	22.4	22.4	22.4	82	17.8	0	2	270	0.00	30.064 
08:55	23.0	23.0	23.0	81	18.1	0	2	270	0.00	30.064 
09:00	23.6	23.6	23.6	79	18.1	0	2	270	0.00	30.062 
09:05	24.1	24.1	24.1	78	18.3	0	1	270	0.00	30.062 
09:10	24.4	24.4	24.4	77	18.2	0	1	270	0.00	30.062 
09:15	24.7	24.7	24.7	76	18.2	0	2	270	0.00	30.058 
09:20	25.1	25.1	25.1	75	18.3	0	1	270	0.00	30.058 
09:25	25.6	25.6	25.6	74	18.5	0	2	270	0.00	30.058 
09:30	26.0	26.0	26.0	73	18.6	0	2	270	0.00	30.053 
09:35	26.4	26.4	26.4	71	18.3	0	2	270	0.00	30.053 
09:40	26.9	26.9	26.9	70	18.4	0	1	270	0.00	30.053 
09:45	27.3	27.3	27.3	69	18.5	1	3	270	0.00	30.054 
09:50	27.6	27.6	27.6	68	18.4	1	2	270	0.00	30.054 
09:55	27.9	27.9	27.9	66	18.0	1	2	270	0.00	30.054 
10:00	28.4	28.4	28.4	66	18.5	1	2	270	0.00	30.051 
10:05	28.8	28.8	28.8	65	18.5	1	3	270	0.00	30.051 
10:10	29.1	29.1	29.1	64	18.5	2	5	338	0.00	30.051 
10:15	29.4	29.4	29.4	62	18.0	1	4	338	0.00	30.051 
10:20	29.7	29.7	29.7	61	17.9	2	3	248	0.00	30.051 
10:25	30.0	30.0	30.0	60	17.8	2	4	315	0.00	30.051 
10:30	30.1	30.1	30.1	60	17.9	2	5	338	0.00	30.050 
10:35	30.6	30.6	30.6	59	18.0	2	4	270	0.00	30.050 
10:40	30.7	30.7	30.7	58	17.7	1	3	315	0.00	30.050 
10:45	31.0	31.0	31.0	57	17.6	2	4	248	0.00	30.047 
10:50	31.5	31.5	31.5	56	17.6	1	4	248	0.00	30.047 
10:55	31.9	31.9	31.9	55	17.6	1	3	338	0.00	30.047 
11:00	32.1	32.1	32.1	54	17.4	1	4	338	0.00	30.045 
11:05	32.4	32.4	32.4	54	17.6	1	3	270	0.00	30.045 
11:10	32.8	32.8	32.8	54	18.0	1	2	292	0.00	30.045 
11:15	33.1	33.1	33.1	54	18.3	1	3	292	0.00	30.047 
11:20	33.1	33.1	33.1	52	17.4	1	3	270	0.00	30.047 
11:25	33.4	33.4	33.4	53	18.1	1	4	248	0.00	30.047 
11:30	33.5	33.5	33.5	52	17.8	1	4	248	0.00	30.045 
11:35	33.5	33.5	33.5	49	16.4	2	4	270	0.00	30.045 
11:40	33.5	33.5	33.5	50	16.9	1	3	338	0.00	30.045 
11:45	33.7	33.7	33.7	52	18.0	2	5	338	0.00	30.046 
11:50	34.0	34.0	34.0	50	17.3	2	5	292	0.00	30.046 
11:55	34.4	34.4	34.4	51	18.2	1	5	338	0.00	30.046 
12:00	34.4	34.4	34.4	50	17.7	2	6	248	0.00	30.044 
12:05	34.7	34.7	34.7	50	18.0	2	4	315	0.00	30.044 
12:10	34.9	34.9	34.9	50	18.2	1	4	292	0.00	30.044 
12:15	35.3	35.3	35.3	48	17.6	2	4	248	0.00	30.045 
12:20	35.8	35.8	35.8	46	17.1	2	6	248	0.00	30.045 
12:25	35.9	35.9	35.9	45	16.7	1	6	248	0.00	30.045 
12:30	36.2	36.2	36.2	46	17.4	2	6	248	0.00	30.044 
12:35	36.5	36.5	36.5	45	17.2	1	3	292	0.00	30.044 
12:40	36.8	36.8	36.8	44	17.0	2	5	248	0.00	30.044 
12:45	36.8	36.8	36.8	44	17.0	2	4	248	0.00	30.045 
12:50	36.9	36.9	36.9	44	17.0	2	6	248	0.00	30.045 
12:55	37.2	37.2	37.2	43	16.8	2	4	248	0.00	30.045 
13:00	37.3	37.3	37.3	44	17.4	1	4	248	0.00	30.042 
13:05	37.3	37.3	37.3	41	15.8	3	6	270	0.00	30.042 
13:10	37.2	37.2	37.2	41	15.7	2	4	270	0.00	30.042 
13:15	37.3	37.3	37.3	42	16.3	2	4	270	0.00	30.044 
13:20	37.3	37.3	37.3	46	18.4	1	5	270	0.00	30.044 
13:25	37.9	37.9	37.9	42	16.9	1	3	248	0.00	30.044 
13:30	38.0	38.0	38.0	42	17.0	2	6	248	0.00	30.040 
13:35	38.3	38.3	38.3	42	17.2	2	4	248	0.00	30.040 
13:40	38.6	38.6	38.6	39	15.8	2	5	248	0.00	30.040 
13:45	38.8	38.8	38.8	40	16.6	2	7	248	0.00	30.038 
13:50	38.8	38.8	38.8	37	14.8	2	6	270	0.00	30.038 
13:55	39.2	39.2	39.2	38	15.8	1	4	270	0.00	30.038 
14:00	39.5	39.5	39.5	38	16.0	2	6	270	0.00	30.028 
14:05	39.6	39.6	39.6	39	16.7	1	5	225	0.00	30.028 
14:10	39.6	39.6	39.6	37	15.5	2	5	270	0.00	30.028 
14:15	39.6	39.6	39.6	36	14.9	2	4	270	0.00	30.027 
14:20	39.6	39.6	39.6	40	17.3	2	5	248	0.00	30.027 
14:25	39.8	39.8	39.8	38	16.3	1	5	248	0.00	30.027 
14:30	40.1	40.1	40.1	37	15.9	2	7	270	0.00	30.024 
14:35	40.2	40.2	40.2	35	14.8	2	6	248	0.00	30.024 
14:40	40.5	40.5	40.5	38	16.9	1	3	248	0.00	30.024 
14:45	40.9	40.9	40.9	35	15.4	2	5	270	0.00	30.019 
14:50	41.2	41.2	41.2	36	16.3	2	6	270	0.00	30.019 
14:55	41.1	41.1	41.1	36	16.2	2	4	270	0.00	30.019 
15:00	41.1	41.1	41.1	35	15.6	2	5	248	0.00	30.016 
15:05	41.1	41.1	41.1	35	15.6	1	4	248	0.00	30.016 
15:10	41.5	41.5	41.5	35	15.9	2	5	248	0.00	30.016 
15:15	41.8	41.8	41.8	36	16.8	1	3	270	0.00	30.009 
15:20	41.9	41.9	41.9	33	14.9	2	5	248	0.00	30.009 
15:25	41.6	41.6	41.6	35	16.0	2	5	292	0.00	30.009 
15:30	41.8	41.8	41.8	35	16.2	1	3	248	0.00	30.004 
15:35	41.8	41.8	41.8	36	16.8	2	5	248	0.00	30.004 
15:40	41.8	41.8	41.8	35	16.2	0	3	248	0.00	30.004 
15:45	41.9	41.9	41.9	35	16.3	2	6	248	0.00	30.004 
15:50	41.5	41.5	41.5	35	15.9	1	4	292	0.00	30.004 
15:55	40.9	40.9	40.9	34	14.7	1	4	338	0.00	30.004 
16:00	41.1	41.1	41.1	34	14.9	2	5	338	0.00	29.999 
16:05	41.6	41.6	41.6	34	15.3	1	5	248	0.00	29.999 
16:10	41.2	41.2	41.2	35	15.6	2	4	248	0.00	29.999 
16:15	41.1	41.1	41.1	33	14.2	2	5	315	0.00	29.996 
16:20	41.2	41.2	41.2	35	15.6	2	7	315	0.00	29.996 
16:25	41.3	41.3	41.3	33	14.4	2	4	315	0.00	29.996 
16:30	41.1	41.1	41.1	35	15.6	2	4	248	0.00	29.996 
16:35	40.9	40.9	40.9	35	15.4	1	4	338	0.00	29.996 
16:40	41.5	41.5	41.5	35	15.9	2	4	248	0.00	29.996 
16:45	41.8	41.8	41.8	33	14.8	2	4	248	0.00	29.991 
16:50	41.6	41.6	41.6	32	14.0	2	5	248	0.00	29.991 
16:55	41.3	41.3	41.3	33	14.4	1	4	270	0.00	29.991 
17:00	40.8	40.8	40.8	33	14.0	2	7	315	0.00	29.995 
17:05	40.8	40.8	40.8	34	14.6	2	4	270	0.00	29.995 
17:10	40.9	40.9	40.9	35	15.4	1	5	338	0.00	29.995 
17:15	40.9	40.9	40.9	34	14.7	1	4	315	0.00	29.994 
17:20	41.2	41.2	41.2	32	13.6	1	3	270	0.00	29.994 
17:25	41.3	41.3	41.3	32	13.7	2	4	248	0.00	29.994 
17:30	41.5	41.5	41.5	33	14.6	1	3	270	0.00	29.995 
17:35	41.5	41.5	41.5	33	14.6	1	3	248	0.00	29.995 
17:40	41.5	41.5	41.5	33	14.6	1	2	270	0.00	29.995 
17:45	41.3	41.3	41.3	34	15.1	2	6	270	0.00	29.995 
17:50	41.2	41.2	41.2	34	15.0	2	3	248	0.00	29.995 
17:55	41.3	41.3	41.3	33	14.4	2	4	248	0.00	29.995 
18:00	41.3	41.3	41.3	34	15.1	1	4	248	0.00	29.995 
18:05	41.3	41.3	41.3	35	15.7	1	3	315	0.00	29.995 
18:10	41.1	41.1	41.1	34	14.9	1	3	292	0.00	29.995 
18:15	40.9	40.9	40.9	34	14.7	1	3	315	0.00	29.996 
18:20	41.1	41.1	41.1	34	14.9	1	3	315	0.00	29.996 
18:25	41.1	41.1	41.1	34	14.9	1	4	248	0.00	29.996 
18:30	40.9	40.9	40.9	35	15.4	1	4	248	0.00	30.002 
18:35	40.6	40.6	40.6	35	15.1	1	3	315	0.00	30.002 
18:40	40.6	40.6	40.6	35	15.1	1	4	248	0.00	30.002 
18:45	40.5	40.5	40.5	35	15.0	1	3	248	0.00	30.003 
18:50	40.3	40.3	40.3	35	14.8	1	3	248	0.00	30.003 
18:55	40.1	40.1	40.1	36	15.3	1	3	338	0.00	30.003 
19:00	39.9	39.9	39.9	37	15.8	1	3	315	0.00	30.013 
19:05	39.8	39.8	39.8	37	15.7	1	3	248	0.00	30.013 
19:10	39.8	39.8	39.8	37	15.7	0	2	248	0.00	30.013 
19:15	39.6	39.6	39.6	37	15.5	1	3	248	0.00	30.014 
19:20	39.5	39.5	39.5	38	16.0	0	2	338	0.00	30.014 
19:25	39.3	39.3	39.3	38	15.8	0	2	338	0.00	30.014 
19:30	39.1	39.1	39.1	38	15.7	0	3	248	0.00	30.018 
19:35	38.9	38.9	38.9	39	16.1	0	1	248	0.00	30.018 
19:40	38.8	38.8	38.8	39	16.0	0	1	248	0.00	30.018 
19:45	38.5	38.5	38.5	39	15.7	0	1	248	0.00	30.026 
19:50	38.0	38.0	38.0	40	15.8	0	1	248	0.00	30.026 
19:55	37.9	37.9	37.9	40	15.8	0	1	248	0.00	30.026 
20:00	37.5	37.5	37.5	41	16.0	0	0	---	0.00	30.029 
20:05	37.2	37.2	37.2	41	15.7	0	0	---	0.00	30.029 
20:10	36.9	36.9	36.9	42	16.0	0	0	---	0.00	30.029 
20:15	36.6	36.6	36.6	42	15.7	0	0	---	0.00	30.029 
20:20	36.2	36.2	36.2	43	15.9	0	0	---	0.00	30.029 
20:25	35.9	35.9	35.9	43	15.6	0	0	---	0.00	30.029 
20:30	35.6	35.6	35.6	44	15.9	0	0	---	0.00	30.034 
20:35	35.3	35.3	35.3	44	15.6	0	0	---	0.00	30.034 
20:40	35.0	35.0	35.0	44	15.3	0	0	---	0.00	30.034 
20:45	34.7	34.7	34.7	45	15.6	0	0	---	0.00	30.035 
20:50	34.3	34.3	34.3	46	15.7	0	0	---	0.00	30.035 
20:55	34.0	34.0	34.0	47	15.9	0	0	---	0.00	30.035 
21:00	33.5	33.5	33.5	47	15.5	0	0	---	0.00	30.041 
21:05	33.2	33.2	33.2	49	16.1	0	2	248	0.00	30.041 
21:10	33.7	33.7	33.7	48	16.1	0	1	248	0.00	30.041 
21:15	33.8	33.8	33.8	48	16.2	0	1	248	0.00	30.042 
21:20	33.8	33.8	33.8	48	16.2	0	0	---	0.00	30.042 
21:25	33.5	33.5	33.5	48	15.9	0	0	---	0.00	30.042 
21:30	33.4	33.4	33.4	48	15.8	0	0	---	0.00	30.042 
21:35	32.9	32.9	32.9	48	15.4	0	0	---	0.00	30.042 
21:40	32.7	32.7	32.7	49	15.7	0	0	---	0.00	30.042 
21:45	32.4	32.4	32.4	49	15.4	0	0	---	0.00	30.042 
21:50	31.9	31.9	31.9	50	15.4	0	0	---	0.00	30.042 
21:55	31.6	31.6	31.6	50	15.1	0	0	---	0.00	30.042 
22:00	31.2	31.2	31.2	51	15.2	0	0	---	0.00	30.045 
22:05	30.7	30.7	30.7	52	15.2	0	0	---	0.00	30.045 
22:10	30.4	30.4	30.4	53	15.3	0	0	---	0.00	30.045 
22:15	30.1	30.1	30.1	53	15.1	0	0	---	0.00	30.042 
22:20	30.1	30.1	30.1	54	15.5	0	1	248	0.00	30.042 
22:25	30.4	30.4	30.4	53	15.3	0	0	---	0.00	30.042 
22:30	30.6	30.6	30.6	53	15.5	0	1	248	0.00	30.043 
22:35	30.6	30.6	30.6	53	15.5	0	1	248	0.00	30.043 
22:40	30.7	30.7	30.7	52	15.2	0	0	---	0.00	30.043 
22:45	30.6	30.6	30.6	52	15.1	0	0	---	0.00	30.047 
22:50	30.4	30.4	30.4	52	14.9	0	0	---	0.00	30.047 
22:55	30.1	30.1	30.1	53	15.1	0	0	---	0.00	30.047 
23:00	30.0	30.0	30.0	53	15.0	0	0	---	0.00	30.050 
23:05	29.8	29.8	29.8	53	14.8	0	0	---	0.00	30.050 
23:10	29.7	29.7	29.7	54	15.1	0	0	---	0.00	30.050 
23:15	29.5	29.5	29.5	54	14.9	0	0	---	0.00	30.049 
23:20	29.4	29.4	29.4	54	14.8	0	0	---	0.00	30.049 
23:25	29.3	29.3	29.3	55	15.2	0	0	---	0.00	30.049 
23:30	29.0	29.0	29.0	55	14.9	0	0	---	0.00	30.056 
23:35	28.7	28.7	28.7	56	15.0	0	0	---	0.00	30.056 
23:40	28.4	28.4	28.4	56	14.7	0	0	---	0.00	30.056 
23:45	28.2	28.2	28.2	57	14.9	0	0	---	0.00	30.058 
23:50	28.1	28.1	28.1	57	14.9	0	0	---	0.00	30.058 
23:55	27.9	27.9	27.9	58	15.1	0	0	---	0.00	30.058 

CoCoRaHS
IN-AL-39
A2 Web Hosting
Creative Commons License
GoDaddy
search engine by freefind advanced

loaded 2018-11-19 10:15:49 • last modified 2010-11-18 10:43:29
Privacy PolicyDisclaimer
• wx.awcolley.com is powered by PmWiki v.2002016 •
• all content (unless otherwise noted) © 2018 A W Colley